หน้าหลัก
METAR-TAF:

METAR-TAF

ท่าอากาศยาน :

ท่าอากาศยานนานาชาติไคโร

ไคโร, อียิปต์

ละติจูด: 30-08N, ลองจิจูด: 031-24E, ความสูง: 64 ม.

การสังเกตสภาพอากาศปัจจุบัน

รายงานได้ทำขึ้นเมื่อ 19 นาทีที่แล้ว ณ เวลา 00:30 UTC
ลม 9 นอตจากใต้
อุณหภูมิ 17°C
ความชื้น 45%
ความกดอากาศ 1013 hPa
ทัศนวิสัย 10 กม. หรือมากกว่า
ไม่มีเมฆต่ำกว่า 1,500 ม. และไม่มีเมฆคิวมูโลนิมบัส

METAR: HECA 110030Z 19009KT CAVOK 17/05 Q1013 NOSIG

เวลา: 02:49 (00:49 UTC)

การพยากรณ์

รายงานได้ทำขึ้นเมื่อ 1 ชั่วโมงและ 49 นาทีที่แล้ว ณ เวลา 23:00 UTC
การพยากรณ์มีผลตั้งแต่วันที่ 11 ณ เวลา 00 UTC จนถึงวันที่ 12 ณ เวลา 06 UTC
ลม 9 นอตจากใต้/ตะวันตกเฉียงใต้
ทัศนวิสัย: 7000 ม.
มีเมฆกระจายเป็นบางส่วนที่ความสูง 2500 ฟุต
ชั่วคราว
ตั้งแต่วันที่ 11 ณ เวลา 00 UTC จนถึงวันที่ 11 ณ เวลา 08 UTC
ทัศนวิสัย: 4000 ม.
เมฆหมอก
ชั่วคราว
ตั้งแต่วันที่ 11 ณ เวลา 08 UTC จนถึงวันที่ 11 ณ เวลา 18 UTC
ลม 15 นอตจากใต้/ตะวันตกเฉียงใต้
ทัศนวิสัย: 3000 ม.
ทราย

TAF: HECA 102300Z 1100/1206 21009KT 7000 SCT025 TEMPO 1100/1108 4000 HZ NSC TEMPO 1108/1118 20015KT 3000 SA NSC

สังเกตการณ์สภาพอากาศและพยากรณ์อากาศของสนามบินมากกว่า 4000 แห่ง (รายงาน METAR และ TAF).

สถานีที่ดูได้จะแสดงไว้ด้วยจุดสีเหลืองและสีแดงบนแผนที่.

เลื่อนเมาส์ไปเหนือจุดเพื่อดูชื่อสถานี.

แล้วคลิกเพื่อดูสังเกตการณ์และการพยากรณ์สภาพอากาศ.

ในการเปลี่ยนแผนที่: คลิกที่ปุ่มสีเขียวที่มีกากบาทสีดำเพื่อซูมเข้า; ที่ปุ่มสีเขียวที่มีขีดเพื่อซูมออก; หรือที่ลูกศรสีเขียวเพื่อไปยังแผนที่ที่อยู่ติดกัน.


METAR-TAF: